Time;durP1;ratioP1;P1;durP2;ratioP2;P2;SDS_P1;SDS_P2;PMS_P1;PMS_P2;Temp;Humidity;BMP_temperature;BMP_pressure;BME280_temperature;BME280_humidity;BME280_pressure;Samples;Min_cycle;Max_cycle;Signal;HPM_P1;HPM_P2
2021/06/06 00:00:05;;;;;;;13.38;11.05;;;;;;;;;;5114541;28;20441;-73
2021/06/06 00:02:31;;;;;;;13.52;11.50;;;;;;;;;;5114161;28;20020;-73
2021/06/06 00:04:57;;;;;;;12.50;10.73;;;;;;;;;;5114952;28;20126;-72
2021/06/06 00:07:23;;;;;;;14.00;11.60;;;;;;;;;;5113439;28;20473;-76
2021/06/06 00:09:49;;;;;;;10.95;10.00;;;;;;;;;;5113469;28;20035;-73
2021/06/06 00:12:16;;;;;;;11.07;10.00;;;;;;;;;;5115019;28;20461;-73
2021/06/06 00:14:42;;;;;;;12.00;10.93;;;;;;;;;;5112481;28;20032;-75
2021/06/06 00:17:09;;;;;;;15.10;11.50;;;;;;;;;;5114053;28;20024;-73
2021/06/06 00:19:35;;;;;;;12.85;11.55;;;;;;;;;;5111868;28;20492;-73
2021/06/06 00:22:01;;;;;;;12.13;10.93;;;;;;;;;;5109003;28;20373;-74
2021/06/06 00:24:29;;;;;;;11.18;10.13;;;;;;;;;;5109482;28;20040;-73
2021/06/06 00:26:55;;;;;;;13.52;10.68;;;;;;;;;;5109499;28;20145;-73
2021/06/06 00:29:21;;;;;;;11.27;10.27;;;;;;;;;;5109416;28;20041;-73
2021/06/06 00:31:47;;;;;;;12.45;11.13;;;;;;;;;;5109362;28;20110;-73
2021/06/06 00:34:14;;;;;;;12.30;11.07;;;;;;;;;;5109205;28;20027;-73
2021/06/06 00:36:40;;;;;;;12.63;10.88;;;;;;;;;;5109556;28;20487;-72
2021/06/06 00:39:06;;;;;;;11.43;10.30;;;;;;;;;;5108811;28;20436;-74
2021/06/06 00:41:32;;;;;;;13.50;10.82;;;;;;;;;;5110140;28;20115;-72
2021/06/06 00:43:58;;;;;;;13.77;10.93;;;;;;;;;;5109213;28;20051;-73
2021/06/06 00:46:25;;;;;;;10.73;9.63;;;;;;;;;;5110017;28;20019;-73
2021/06/06 00:48:51;;;;;;;10.90;9.75;;;;;;;;;;5111528;28;20048;-73
2021/06/06 00:51:19;;;;;;;11.85;10.80;;;;;;;;;;5110836;28;20028;-73
2021/06/06 00:53:47;;;;;;;13.50;11.65;;;;;;;;;;5109280;28;20028;-73
2021/06/06 00:56:14;;;;;;;11.38;10.27;;;;;;;;;;5109825;28;20031;-73
2021/06/06 00:58:42;;;;;;;11.55;10.52;;;;;;;;;;5109564;28;20031;-73
2021/06/06 01:01:10;;;;;;;12.85;11.55;;;;;;;;;;5108563;28;20106;-73
2021/06/06 01:03:36;;;;;;;11.95;10.90;;;;;;;;;;5114000;28;20028;-73
2021/06/06 01:06:04;;;;;;;12.07;10.98;;;;;;;;;;5114364;28;20472;-72
2021/06/06 01:08:33;;;;;;;10.10;9.10;;;;;;;;;;5114069;28;20055;-73
2021/06/06 01:11:01;;;;;;;12.43;9.70;;;;;;;;;;5112860;28;20030;-72
2021/06/06 01:13:32;;;;;;;12.07;10.18;;;;;;;;;;5110081;28;20035;-72
2021/06/06 01:15:59;;;;;;;10.55;9.55;;;;;;;;;;5110153;28;20024;-72
2021/06/06 01:18:28;;;;;;;9.70;8.80;;;;;;;;;;5113283;28;20023;-73
2021/06/06 01:20:58;;;;;;;11.77;10.63;;;;;;;;;;5112463;28;20015;-73
2021/06/06 01:23:43;;;;;;;10.10;9.00;;;;;;;;;;5113241;28;20059;-74
2021/06/06 01:26:11;;;;;;;10.77;9.57;;;;;;;;;;5098061;28;20038;-72
2021/06/06 01:28:40;;;;;;;10.70;9.75;;;;;;;;;;5112277;28;20530;-73
2021/06/06 01:31:06;;;;;;;10.10;8.98;;;;;;;;;;5112764;28;20026;-73
2021/06/06 01:33:36;;;;;;;10.48;9.48;;;;;;;;;;5112868;28;20028;-75
2021/06/06 01:36:04;;;;;;;10.55;9.55;;;;;;;;;;5113424;28;20051;-73
2021/06/06 01:38:38;;;;;;;9.93;9.07;;;;;;;;;;5112850;28;20376;-73
2021/06/06 01:41:06;;;;;;;11.00;9.88;;;;;;;;;;5113356;28;20019;-73
2021/06/06 01:43:32;;;;;;;11.32;10.23;;;;;;;;;;5113945;28;20461;-73
2021/06/06 01:45:59;;;;;;;10.77;9.82;;;;;;;;;;5113174;28;20031;-73
2021/06/06 01:48:25;;;;;;;13.70;10.48;;;;;;;;;;5113290;28;20016;-73
2021/06/06 01:50:56;;;;;;;10.32;9.43;;;;;;;;;;5112819;28;20048;-73
2021/06/06 01:53:22;;;;;;;10.73;9.73;;;;;;;;;;5113403;28;20137;-73
2021/06/06 01:55:49;;;;;;;10.18;9.25;;;;;;;;;;5113694;28;20020;-73
2021/06/06 01:58:15;;;;;;;10.90;9.77;;;;;;;;;;5112697;28;20024;-73
2021/06/06 02:00:44;;;;;;;10.15;9.15;;;;;;;;;;5113043;28;20103;-73
2021/06/06 02:03:11;;;;;;;10.82;9.73;;;;;;;;;;5118238;28;20020;-73
2021/06/06 02:05:37;;;;;;;13.15;10.30;;;;;;;;;;5118233;28;20109;-73
2021/06/06 02:08:04;;;;;;;10.48;9.45;;;;;;;;;;5118663;28;20028;-73
2021/06/06 02:10:32;;;;;;;10.05;9.15;;;;;;;;;;5118108;28;20495;-72
2021/06/06 02:12:59;;;;;;;10.85;9.82;;;;;;;;;;5118329;28;20030;-73
2021/06/06 02:15:26;;;;;;;11.35;9.80;;;;;;;;;;5117983;28;20035;-73
2021/06/06 02:17:52;;;;;;;11.38;9.80;;;;;;;;;;5118100;28;20062;-73
2021/06/06 02:20:19;;;;;;;11.63;10.55;;;;;;;;;;5118168;28;20077;-73
2021/06/06 02:22:45;;;;;;;11.32;10.23;;;;;;;;;;5118058;28;20532;-73
2021/06/06 02:25:14;;;;;;;10.98;9.80;;;;;;;;;;5117854;28;20040;-73
2021/06/06 02:27:44;;;;;;;11.85;10.70;;;;;;;;;;5117807;28;20055;-73
2021/06/06 02:30:12;;;;;;;11.38;10.27;;;;;;;;;;5118086;28;20031;-73
2021/06/06 02:32:39;;;;;;;11.57;9.77;;;;;;;;;;5117681;28;20020;-73
2021/06/06 02:35:11;;;;;;;11.30;10.20;;;;;;;;;;5118045;28;20024;-73
2021/06/06 02:37:44;;;;;;;10.73;9.75;;;;;;;;;;5118076;28;20023;-73
2021/06/06 02:40:15;;;;;;;11.10;10.02;;;;;;;;;;5117856;28;20469;-73
2021/06/06 02:42:42;;;;;;;10.73;9.65;;;;;;;;;;5117879;28;20019;-73
2021/06/06 02:45:09;;;;;;;10.52;9.63;;;;;;;;;;5117651;28;20075;-73
2021/06/06 02:47:36;;;;;;;10.48;9.50;;;;;;;;;;5117511;28;20023;-73
2021/06/06 02:50:05;;;;;;;14.65;11.52;;;;;;;;;;5117423;28;20043;-73
2021/06/06 02:52:39;;;;;;;12.23;11.02;;;;;;;;;;5117257;28;20020;-73
2021/06/06 02:55:06;;;;;;;11.43;10.30;;;;;;;;;;5117065;28;20027;-73
2021/06/06 02:57:32;;;;;;;11.18;10.07;;;;;;;;;;5117300;28;20024;-73
2021/06/06 02:59:59;;;;;;;11.02;9.85;;;;;;;;;;5117749;28;20028;-73
2021/06/06 03:02:26;;;;;;;10.65;9.65;;;;;;;;;;5117356;28;20051;-73
2021/06/06 03:04:56;;;;;;;10.57;9.57;;;;;;;;;;5116980;28;20063;-73
2021/06/06 03:07:24;;;;;;;10.77;9.77;;;;;;;;;;5117239;28;20066;-74
2021/06/06 03:09:51;;;;;;;11.20;10.20;;;;;;;;;;5116784;28;20023;-73
2021/06/06 03:12:17;;;;;;;11.63;10.52;;;;;;;;;;5116577;28;20350;-73
2021/06/06 03:14:43;;;;;;;11.93;10.82;;;;;;;;;;5116945;28;20019;-73
2021/06/06 03:17:10;;;;;;;11.20;10.20;;;;;;;;;;5116998;28;20031;-73
2021/06/06 03:19:38;;;;;;;12.15;11.05;;;;;;;;;;5116684;28;20073;-72
2021/06/06 03:22:04;;;;;;;10.85;9.68;;;;;;;;;;5116807;28;20051;-73
2021/06/06 03:24:32;;;;;;;10.60;9.43;;;;;;;;;;5117038;28;20047;-74
2021/06/06 03:26:58;;;;;;;11.23;10.23;;;;;;;;;;5117275;28;20039;-75
2021/06/06 03:29:26;;;;;;;11.10;10.10;;;;;;;;;;5116808;28;20076;-75
2021/06/06 03:31:54;;;;;;;10.55;9.52;;;;;;;;;;5116378;28;20526;-74
2021/06/06 03:34:20;;;;;;;10.27;9.38;;;;;;;;;;5116541;28;20039;-74
2021/06/06 03:36:46;;;;;;;10.98;9.98;;;;;;;;;;5116516;28;20149;-74
2021/06/06 03:39:14;;;;;;;9.80;8.95;;;;;;;;;;5116567;28;20020;-74
2021/06/06 03:41:40;;;;;;;10.27;9.35;;;;;;;;;;5116543;28;20023;-74
2021/06/06 03:44:06;;;;;;;10.40;8.75;;;;;;;;;;5116413;28;20031;-74
2021/06/06 03:46:33;;;;;;;11.20;10.20;;;;;;;;;;5116508;28;20440;-74
2021/06/06 03:48:59;;;;;;;10.70;9.60;;;;;;;;;;5116340;28;20062;-75
2021/06/06 03:51:25;;;;;;;10.00;9.10;;;;;;;;;;5116383;28;20020;-75
2021/06/06 03:53:51;;;;;;;10.35;9.35;;;;;;;;;;5116562;28;20032;-72
2021/06/06 03:56:17;;;;;;;10.60;9.60;;;;;;;;;;5116776;28;20077;-72
2021/06/06 03:58:43;;;;;;;11.23;10.23;;;;;;;;;;5116677;28;20062;-75
2021/06/06 04:01:09;;;;;;;10.15;9.15;;;;;;;;;;5116137;28;20024;-74
2021/06/06 04:03:35;;;;;;;10.33;9.33;;;;;;;;;;5116249;28;20387;-74
2021/06/06 04:06:01;;;;;;;8.70;8.00;;;;;;;;;;5115900;28;20031;-75
2021/06/06 04:08:27;;;;;;;10.25;9.25;;;;;;;;;;5116005;28;20023;-74
2021/06/06 04:10:54;;;;;;;10.15;9.15;;;;;;;;;;5116475;28;20034;-74
2021/06/06 04:13:20;;;;;;;8.65;7.85;;;;;;;;;;5116034;28;20028;-75
2021/06/06 04:15:46;;;;;;;9.75;8.75;;;;;;;;;;5115944;28;20023;-74
2021/06/06 04:18:14;;;;;;;9.68;8.77;;;;;;;;;;5115569;28;20093;-74
2021/06/06 04:20:40;;;;;;;9.13;8.32;;;;;;;;;;5115644;28;20028;-74
2021/06/06 04:23:06;;;;;;;10.18;9.10;;;;;;;;;;5116076;28;20020;-75
2021/06/06 04:25:32;;;;;;;9.77;8.48;;;;;;;;;;5115083;28;20032;-74
2021/06/06 04:27:58;;;;;;;9.25;8.32;;;;;;;;;;5115596;28;20035;-74
2021/06/06 04:30:24;;;;;;;9.90;9.00;;;;;;;;;;5115321;28;20520;-74
2021/06/06 04:32:50;;;;;;;10.27;8.77;;;;;;;;;;5115539;28;20127;-74
2021/06/06 04:35:16;;;;;;;9.32;8.02;;;;;;;;;;5115345;28;20036;-74
2021/06/06 04:37:43;;;;;;;9.30;7.97;;;;;;;;;;5115043;28;20031;-74
2021/06/06 04:40:09;;;;;;;8.25;7.55;;;;;;;;;;5115866;28;20069;-74
2021/06/06 04:42:36;;;;;;;8.80;8.07;;;;;;;;;;5115755;28;20479;-74
2021/06/06 04:45:02;;;;;;;9.20;8.32;;;;;;;;;;5115500;28;20040;-74
2021/06/06 04:47:28;;;;;;;9.77;8.85;;;;;;;;;;5115139;28;20453;-74
2021/06/06 04:49:54;;;;;;;8.70;7.82;;;;;;;;;;5115016;28;20392;-74
2021/06/06 04:52:20;;;;;;;9.82;8.93;;;;;;;;;;5115823;28;20032;-74
2021/06/06 04:54:46;;;;;;;8.48;7.68;;;;;;;;;;5115512;28;20035;-75
2021/06/06 04:57:12;;;;;;;8.77;7.88;;;;;;;;;;5115002;28;20495;-74
2021/06/06 04:59:38;;;;;;;9.73;7.53;;;;;;;;;;5115045;28;20081;-74
2021/06/06 05:02:05;;;;;;;8.45;7.65;;;;;;;;;;5115159;28;20030;-74
2021/06/06 05:04:32;;;;;;;8.40;7.57;;;;;;;;;;5114556;28;20110;-75
2021/06/06 05:06:58;;;;;;;8.55;7.85;;;;;;;;;;5114893;28;20028;-74
2021/06/06 05:09:24;;;;;;;7.00;6.40;;;;;;;;;;5114836;28;20024;-74
2021/06/06 05:11:50;;;;;;;8.27;7.47;;;;;;;;;;5115238;28;20027;-74
2021/06/06 05:14:16;;;;;;;8.98;8.10;;;;;;;;;;5115109;28;20106;-73
2021/06/06 05:16:42;;;;;;;7.93;7.22;;;;;;;;;;5114881;28;20023;-74
2021/06/06 05:19:08;;;;;;;7.95;7.20;;;;;;;;;;5107097;28;20015;-74
2021/06/06 05:21:35;;;;;;;8.30;7.43;;;;;;;;;;5102488;28;20102;-75
2021/06/06 05:24:01;;;;;;;8.88;8.07;;;;;;;;;;5102196;28;20040;-76
2021/06/06 05:26:27;;;;;;;8.48;7.68;;;;;;;;;;5102262;28;20036;-75
2021/06/06 05:28:53;;;;;;;7.78;7.18;;;;;;;;;;5106959;28;20764;-76
2021/06/06 05:31:20;;;;;;;7.63;7.03;;;;;;;;;;5104426;28;20023;-75
2021/06/06 05:33:46;;;;;;;7.60;7.00;;;;;;;;;;5103908;28;20028;-77
2021/06/06 05:36:12;;;;;;;7.18;6.57;;;;;;;;;;5101872;28;20023;-72
2021/06/06 05:38:38;;;;;;;6.95;6.40;;;;;;;;;;5103086;28;20473;-74
2021/06/06 05:41:05;;;;;;;6.70;6.18;;;;;;;;;;5103564;28;20473;-75
2021/06/06 05:43:31;;;;;;;6.70;6.07;;;;;;;;;;5101779;28;20044;-77
2021/06/06 05:45:57;;;;;;;7.95;7.18;;;;;;;;;;5103091;28;20027;-77
2021/06/06 05:48:23;;;;;;;8.30;7.50;;;;;;;;;;5103389;28;20028;-77
2021/06/06 05:50:50;;;;;;;6.25;5.75;;;;;;;;;;5101997;28;20047;-74
2021/06/06 05:53:16;;;;;;;8.07;7.28;;;;;;;;;;5103340;28;20015;-75
2021/06/06 05:55:44;;;;;;;7.43;6.75;;;;;;;;;;5103497;28;20042;-75
2021/06/06 05:58:10;;;;;;;6.82;6.28;;;;;;;;;;5101619;28;20452;-75
2021/06/06 06:00:37;;;;;;;6.45;5.95;;;;;;;;;;5103199;28;20020;-74
2021/06/06 06:03:03;;;;;;;7.28;6.57;;;;;;;;;;5102985;28;20027;-73
2021/06/06 06:05:29;;;;;;;7.70;7.10;;;;;;;;;;5101660;28;20522;-74
2021/06/06 06:07:55;;;;;;;7.10;6.50;;;;;;;;;;5103260;28;20377;-81
2021/06/06 06:10:24;;;;;;;6.68;6.18;;;;;;;;;;5103079;28;20048;-73
2021/06/06 06:12:50;;;;;;;7.57;6.97;;;;;;;;;;5101615;28;20032;-74
2021/06/06 06:15:16;;;;;;;7.38;6.78;;;;;;;;;;5102849;28;20012;-76
2021/06/06 06:17:42;;;;;;;6.80;6.20;;;;;;;;;;5102775;28;20020;-74
2021/06/06 06:20:09;;;;;;;6.20;5.75;;;;;;;;;;5101468;28;20107;-73
2021/06/06 06:22:35;;;;;;;6.72;6.13;;;;;;;;;;5094223;28;20024;-76
2021/06/06 06:25:01;;;;;;;6.75;6.25;;;;;;;;;;5094189;28;20036;-76
2021/06/06 06:27:27;;;;;;;5.93;5.32;;;;;;;;;;5093553;28;20366;-72
2021/06/06 06:29:53;;;;;;;13.82;5.93;;;;;;;;;;5093801;28;20024;-74
2021/06/06 06:32:20;;;;;;;6.70;6.15;;;;;;;;;;5093317;28;20039;-75
2021/06/06 06:34:46;;;;;;;10.60;6.95;;;;;;;;;;5093489;28;20028;-74
2021/06/06 06:37:12;;;;;;;8.07;6.65;;;;;;;;;;5093648;28;20074;-72
2021/06/06 06:39:38;;;;;;;6.63;5.93;;;;;;;;;;5093284;28;20020;-72
2021/06/06 06:42:04;;;;;;;6.07;5.50;;;;;;;;;;5093718;28;20024;-71
2021/06/06 06:44:30;;;;;;;12.70;6.93;;;;;;;;;;5093179;28;20036;-72
2021/06/06 06:46:56;;;;;;;13.38;6.32;;;;;;;;;;5092850;28;20117;-72
2021/06/06 06:49:22;;;;;;;11.02;7.80;;;;;;;;;;5095205;28;20044;-74
2021/06/06 06:51:48;;;;;;;17.08;10.23;;;;;;;;;;5096394;28;20458;-73
2021/06/06 06:54:14;;;;;;;9.07;8.18;;;;;;;;;;5096127;28;20024;-74
2021/06/06 06:56:40;;;;;;;23.42;11.73;;;;;;;;;;5095934;28;20032;-74
2021/06/06 06:59:06;;;;;;;67.93;11.52;;;;;;;;;;5096167;28;20056;-71
2021/06/06 07:01:33;;;;;;;32.55;13.07;;;;;;;;;;5095655;28;20020;-74
2021/06/06 07:03:59;;;;;;;16.95;10.45;;;;;;;;;;5096432;28;20397;-75
2021/06/06 07:06:25;;;;;;;15.45;10.90;;;;;;;;;;5095911;28;20027;-74
2021/06/06 07:08:51;;;;;;;18.02;11.05;;;;;;;;;;5096761;28;20036;-75
2021/06/06 07:11:18;;;;;;;15.18;9.95;;;;;;;;;;5096218;28;20028;-72
2021/06/06 07:13:44;;;;;;;19.33;11.13;;;;;;;;;;5096146;28;20031;-71
2021/06/06 07:16:10;;;;;;;26.73;11.55;;;;;;;;;;5096024;28;20409;-71
2021/06/06 07:18:36;;;;;;;12.27;10.90;;;;;;;;;;5095749;28;20024;-71
2021/06/06 07:21:03;;;;;;;11.93;10.70;;;;;;;;;;5096156;28;20027;-72
2021/06/06 07:23:30;;;;;;;25.02;11.60;;;;;;;;;;5095928;28;20068;-71
2021/06/06 07:25:56;;;;;;;11.57;8.70;;;;;;;;;;5095823;28;20040;-75
2021/06/06 07:28:23;;;;;;;11.43;9.25;;;;;;;;;;5094919;28;20024;-75
2021/06/06 07:30:50;;;;;;;21.50;11.43;;;;;;;;;;5093975;28;20028;-75
2021/06/06 07:33:17;;;;;;;15.27;10.52;;;;;;;;;;5094044;28;20051;-75
2021/06/06 07:35:43;;;;;;;17.15;8.40;;;;;;;;;;5096013;28;20027;-75
2021/06/06 07:38:09;;;;;;;16.67;9.27;;;;;;;;;;5096117;28;20024;-74
2021/06/06 07:40:36;;;;;;;11.05;8.23;;;;;;;;;;5095662;28;20054;-74
2021/06/06 07:43:03;;;;;;;14.82;7.43;;;;;;;;;;5095620;28;20028;-75
2021/06/06 07:45:29;;;;;;;15.80;9.77;;;;;;;;;;5095605;28;20043;-76
2021/06/06 07:47:55;;;;;;;10.63;8.70;;;;;;;;;;5096858;28;20028;-75
2021/06/06 07:50:22;;;;;;;9.38;6.97;;;;;;;;;;5095913;28;20105;-74
2021/06/06 07:52:49;;;;;;;13.85;7.57;;;;;;;;;;5095789;28;20055;-75
2021/06/06 07:55:16;;;;;;;10.55;7.28;;;;;;;;;;5095309;28;20028;-75
2021/06/06 07:57:42;;;;;;;7.05;6.38;;;;;;;;;;5095277;28;20028;-75
2021/06/06 08:00:09;;;;;;;10.25;7.28;;;;;;;;;;5094883;28;20028;-74
2021/06/06 08:02:35;;;;;;;9.05;6.78;;;;;;;;;;5095049;28;20028;-75
2021/06/06 08:05:01;;;;;;;9.07;6.90;;;;;;;;;;5094837;28;20043;-74
2021/06/06 08:07:29;;;;;;;8.45;6.95;;;;;;;;;;5095149;28;20153;-75
2021/06/06 08:09:55;;;;;;;6.50;5.85;;;;;;;;;;5095212;28;20032;-74
2021/06/06 08:12:25;;;;;;;5.88;5.28;;;;;;;;;;5095244;28;20477;-75
2021/06/06 08:14:51;;;;;;;10.07;6.70;;;;;;;;;;5094825;28;20031;-75
2021/06/06 08:17:17;;;;;;;6.68;6.07;;;;;;;;;;5095565;28;20028;-74
2021/06/06 08:19:43;;;;;;;6.80;6.07;;;;;;;;;;5094933;28;20099;-74
2021/06/06 08:22:09;;;;;;;5.90;5.40;;;;;;;;;;5095642;28;20392;-74
2021/06/06 08:24:35;;;;;;;6.45;5.85;;;;;;;;;;5093674;28;20469;-76
2021/06/06 08:27:01;;;;;;;8.35;5.72;;;;;;;;;;5094530;28;20040;-76
2021/06/06 08:29:28;;;;;;;6.88;5.90;;;;;;;;;;5094628;28;20055;-76
2021/06/06 08:31:55;;;;;;;6.05;5.50;;;;;;;;;;5095277;28;20423;-77
2021/06/06 08:34:21;;;;;;;7.95;6.45;;;;;;;;;;5103422;28;20028;-77
2021/06/06 08:36:48;;;;;;;5.95;5.13;;;;;;;;;;5115382;28;20538;-77
2021/06/06 08:39:15;;;;;;;12.63;6.53;;;;;;;;;;5114541;28;20028;-73
2021/06/06 08:41:44;;;;;;;21.45;6.13;;;;;;;;;;5104965;28;20042;-74
2021/06/06 08:44:16;;;;;;;6.57;5.97;;;;;;;;;;5102709;28;20111;-78
2021/06/06 08:47:02;;;;;;;17.05;5.82;;;;;;;;;;5100115;28;20020;-73
2021/06/06 08:49:30;;;;;;;6.85;5.80;;;;;;;;;;5075799;28;20167;-74
2021/06/06 08:52:10;;;;;;;6.35;5.60;;;;;;;;;;5082365;28;20024;-74
2021/06/06 08:54:41;;;;;;;7.32;5.90;;;;;;;;;;5082140;28;20032;-74
2021/06/06 08:57:28;;;;;;;9.82;7.28;;;;;;;;;;5081987;28;20070;-76
2021/06/06 08:59:54;;;;;;;11.13;8.48;;;;;;;;;;5075505;28;20032;-75
2021/06/06 09:02:36;;;;;;;18.05;9.45;;;;;;;;;;5083843;28;20021;-77
2021/06/06 09:05:04;;;;;;;25.52;8.82;;;;;;;;;;5083932;28;20035;-73
2021/06/06 09:07:35;;;;;;;12.13;8.38;;;;;;;;;;5082357;28;20525;-72
2021/06/06 09:10:04;;;;;;;13.30;8.95;;;;;;;;;;5082516;28;20028;-75
2021/06/06 09:12:30;;;;;;;13.02;8.77;;;;;;;;;;5082237;28;20035;-77
2021/06/06 09:14:56;;;;;;;13.25;9.20;;;;;;;;;;5083132;28;20020;-75
2021/06/06 09:17:42;;;;;;;8.20;7.40;;;;;;;;;;5083866;28;20086;-77
2021/06/06 09:20:21;;;;;;;9.45;8.45;;;;;;;;;;5078243;28;20077;-72
2021/06/06 09:22:47;;;;;;;15.82;7.95;;;;;;;;;;5080993;28;20020;-72
2021/06/06 09:25:20;;;;;;;14.25;8.15;;;;;;;;;;5084879;28;20428;-71
2021/06/06 09:27:46;;;;;;;8.90;7.28;;;;;;;;;;5081959;28;20020;-73
2021/06/06 09:30:14;;;;;;;15.25;7.63;;;;;;;;;;5081669;28;20433;-72
2021/06/06 09:32:40;;;;;;;14.90;7.13;;;;;;;;;;5084479;28;20043;-72
2021/06/06 09:35:08;;;;;;;13.55;7.05;;;;;;;;;;5080993;28;20013;-73
2021/06/06 09:37:35;;;;;;;10.15;7.15;;;;;;;;;;5083422;28;20498;-73
2021/06/06 09:40:03;;;;;;;10.38;7.72;;;;;;;;;;5081781;28;20025;-74
2021/06/06 09:42:49;;;;;;;9.68;6.15;;;;;;;;;;5075020;28;20103;-73
2021/06/06 09:45:24;;;;;;;7.68;6.05;;;;;;;;;;5072578;28;20465;-73
2021/06/06 09:48:15;;;;;;;7.13;5.85;;;;;;;;;;5073389;28;20024;-75
2021/06/06 09:50:43;;;;;;;8.75;5.68;;;;;;;;;;5071292;28;20036;-76
2021/06/06 09:53:10;;;;;;;97.30;28.65;;;;;;;;;;5070785;28;20032;-80
2021/06/06 09:55:36;;;;;;;70.05;21.05;;;;;;;;;;5072737;28;20029;-79
2021/06/06 09:58:22;;;;;;;45.22;20.15;;;;;;;;;;5072880;28;20561;-78
2021/06/06 10:00:50;;;;;;;29.60;12.73;;;;;;;;;;5072270;28;20028;-83
2021/06/06 10:03:20;;;;;;;20.85;10.35;;;;;;;;;;5073756;28;20107;-82
2021/06/06 10:05:47;;;;;;;17.13;8.75;;;;;;;;;;5073482;28;20029;-78
2021/06/06 10:08:28;;;;;;;10.57;5.80;;;;;;;;;;5073325;28;20060;-78
2021/06/06 10:10:55;;;;;;;15.00;5.97;;;;;;;;;;5072554;28;20102;-78
2021/06/06 10:13:23;;;;;;;11.27;6.78;;;;;;;;;;5073726;28;20083;-74
2021/06/06 10:15:50;;;;;;;8.45;5.40;;;;;;;;;;5073198;28;20052;-77
2021/06/06 10:18:27;;;;;;;10.88;6.57;;;;;;;;;;5072467;28;20024;-76
2021/06/06 10:20:54;;;;;;;7.22;5.10;;;;;;;;;;5073390;28;20099;-73
2021/06/06 10:23:36;;;;;;;6.07;5.47;;;;;;;;;;5074865;28;20115;-74
2021/06/06 10:26:05;;;;;;;13.55;5.80;;;;;;;;;;5077148;28;20500;-80
2021/06/06 10:28:32;;;;;;;6.93;5.50;;;;;;;;;;5076803;28;20036;-75
2021/06/06 10:31:07;;;;;;;5.30;4.80;;;;;;;;;;5076502;28;20024;-76
2021/06/06 10:33:39;;;;;;;6.28;4.97;;;;;;;;;;5076381;28;20031;-76
2021/06/06 10:36:05;;;;;;;6.60;5.38;;;;;;;;;;5076513;28;20060;-74
2021/06/06 10:38:32;;;;;;;6.13;4.50;;;;;;;;;;5076472;28;20067;-73
2021/06/06 10:41:00;;;;;;;10.00;4.93;;;;;;;;;;5076868;28;20031;-78
2021/06/06 10:43:30;;;;;;;5.22;4.18;;;;;;;;;;5078151;28;20470;-78
2021/06/06 10:46:16;;;;;;;11.35;4.80;;;;;;;;;;5078147;28;20043;-78
2021/06/06 10:48:48;;;;;;;7.47;5.38;;;;;;;;;;5081705;28;20386;-78
2021/06/06 10:51:14;;;;;;;;;;;;;;;;;;5098887;28;20102;-77
2021/06/06 10:53:50;;;;;;;15.32;5.50;;;;;;;;;;5096604;28;19907;-78
2021/06/06 10:56:29;;;;;;;6.80;4.90;;;;;;;;;;5097440;28;20024;-76
2021/06/06 10:58:58;;;;;;;6.82;5.40;;;;;;;;;;5097837;28;20024;-78
2021/06/06 11:01:27;;;;;;;8.07;5.15;;;;;;;;;;5096682;28;20063;-78
2021/06/06 11:04:05;;;;;;;5.70;5.20;;;;;;;;;;5098597;28;20100;-79
2021/06/06 11:06:32;;;;;;;4.93;4.53;;;;;;;;;;5099160;28;20073;-79
2021/06/06 11:08:59;;;;;;;5.80;5.30;;;;;;;;;;5099147;28;20026;-78
2021/06/06 11:11:40;;;;;;;13.73;6.07;;;;;;;;;;5104769;28;20473;-79
2021/06/06 11:14:14;;;;;;;15.60;8.55;;;;;;;;;;5106727;28;20103;-76
2021/06/06 11:16:42;;;;;;;28.98;14.00;;;;;;;;;;5106972;28;20047;-83
2021/06/06 11:19:11;;;;;;;33.50;14.93;;;;;;;;;;5097048;28;20055;-78
2021/06/06 11:21:40;;;;;;;42.97;20.27;;;;;;;;;;5095931;28;20100;-77
2021/06/06 11:24:08;;;;;;;39.33;17.35;;;;;;;;;;5078091;28;20047;-74
2021/06/06 11:26:36;;;;;;;39.05;18.63;;;;;;;;;;5095519;28;20028;-76
2021/06/06 11:29:06;;;;;;;25.52;15.05;;;;;;;;;;5095750;28;20028;-75
2021/06/06 11:31:33;;;;;;;30.35;13.20;;;;;;;;;;5095606;28;20032;-75
2021/06/06 11:34:02;;;;;;;21.25;13.38;;;;;;;;;;5095533;28;20117;-76
2021/06/06 11:36:30;;;;;;;17.88;11.07;;;;;;;;;;5095420;28;20016;-76
2021/06/06 11:38:56;;;;;;;15.60;10.43;;;;;;;;;;5095238;28;20053;-76
2021/06/06 11:41:33;;;;;;;15.63;9.35;;;;;;;;;;5099608;28;20376;-75
2021/06/06 11:44:17;;;;;;;11.00;7.70;;;;;;;;;;5104509;28;20020;-79
2021/06/06 11:46:52;;;;;;;10.60;8.23;;;;;;;;;;5105631;28;20039;-76
2021/06/06 11:49:25;;;;;;;11.02;7.60;;;;;;;;;;5105651;28;20044;-75
2021/06/06 11:51:51;;;;;;;8.25;7.45;;;;;;;;;;5103123;28;20024;-72
2021/06/06 11:54:24;;;;;;;9.65;6.63;;;;;;;;;;5104256;28;20076;-72
2021/06/06 11:56:50;;;;;;;8.57;7.72;;;;;;;;;;5112273;28;20342;-74
2021/06/06 11:59:36;;;;;;;10.07;7.80;;;;;;;;;;5106070;28;20081;-73
2021/06/06 12:02:10;;;;;;;8.13;7.32;;;;;;;;;;5080435;28;20023;-74
2021/06/06 12:04:37;;;;;;;9.45;6.45;;;;;;;;;;5095007;28;20028;-74
2021/06/06 12:07:19;;;;;;;10.68;7.38;;;;;;;;;;5101979;28;20481;-72
2021/06/06 12:09:46;;;;;;;10.75;7.07;;;;;;;;;;5102954;28;20027;-71
2021/06/06 12:12:16;;;;;;;8.65;6.72;;;;;;;;;;5100929;28;20073;-73
2021/06/06 12:14:42;;;;;;;11.43;7.25;;;;;;;;;;5103624;28;20663;-73
2021/06/06 12:17:19;;;;;;;13.82;6.95;;;;;;;;;;5101380;28;20039;-72
2021/06/06 12:19:46;;;;;;;7.72;6.60;;;;;;;;;;5102375;28;20474;-73
2021/06/06 12:22:15;;;;;;;8.90;6.40;;;;;;;;;;5103527;28;20030;-74
2021/06/06 12:24:41;;;;;;;14.90;6.93;;;;;;;;;;5103744;28;20028;-75
2021/06/06 12:27:09;;;;;;;12.35;5.85;;;;;;;;;;5102028;28;20133;-73
2021/06/06 12:29:39;;;;;;;6.93;6.18;;;;;;;;;;5102860;28;20536;-73
2021/06/06 12:32:06;;;;;;;6.93;6.28;;;;;;;;;;5103630;28;20026;-73
2021/06/06 12:34:33;;;;;;;8.50;7.13;;;;;;;;;;5102455;28;20463;-73
2021/06/06 12:37:00;;;;;;;6.90;6.30;;;;;;;;;;5102233;28;20099;-74
2021/06/06 12:39:26;;;;;;;7.85;6.63;;;;;;;;;;5103109;28;20016;-72
2021/06/06 12:41:53;;;;;;;9.65;6.95;;;;;;;;;;5102241;28;20375;-73
2021/06/06 12:44:21;;;;;;;8.93;7.32;;;;;;;;;;5102412;28;20088;-70
2021/06/06 12:46:52;;;;;;;8.27;6.75;;;;;;;;;;5102741;28;20028;-71
2021/06/06 12:49:28;;;;;;;6.60;6.00;;;;;;;;;;5100785;28;20044;-72
2021/06/06 12:51:54;;;;;;;16.27;6.05;;;;;;;;;;5100481;28;20024;-73
2021/06/06 12:54:22;;;;;;;6.88;6.18;;;;;;;;;;5103632;28;20047;-73
2021/06/06 12:56:48;;;;;;;6.88;6.28;;;;;;;;;;5102335;28;20027;-73
2021/06/06 12:59:21;;;;;;;6.78;6.18;;;;;;;;;;5101048;28;20026;-74
2021/06/06 13:01:47;;;;;;;7.57;5.88;;;;;;;;;;5102298;28;20461;-74
2021/06/06 13:04:22;;;;;;;8.07;6.68;;;;;;;;;;5101527;28;20677;-74
2021/06/06 13:06:49;;;;;;;10.40;7.05;;;;;;;;;;5102385;28;20024;-78
2021/06/06 13:09:20;;;;;;;6.88;6.20;;;;;;;;;;5101241;28;20039;-76
2021/06/06 13:11:46;;;;;;;6.72;6.13;;;;;;;;;;5101144;28;20058;-76
2021/06/06 13:14:35;;;;;;;6.18;5.68;;;;;;;;;;5101537;28;20069;-76
2021/06/06 13:17:03;;;;;;;7.40;5.95;;;;;;;;;;5100681;28;20672;-75
2021/06/06 13:19:30;;;;;;;8.65;6.65;;;;;;;;;;5101909;28;20027;-73
2021/06/06 13:22:07;;;;;;;7.13;6.43;;;;;;;;;;5102281;28;20452;-74
2021/06/06 13:24:34;;;;;;;6.82;6.22;;;;;;;;;;5102586;28;20058;-72
2021/06/06 13:27:01;;;;;;;13.73;5.60;;;;;;;;;;5100253;28;20026;-73
2021/06/06 13:29:47;;;;;;;5.80;5.40;;;;;;;;;;5102601;28;20428;-74
2021/06/06 13:32:19;;;;;;;6.57;5.63;;;;;;;;;;5086253;28;20023;-75
2021/06/06 13:34:46;;;;;;;7.20;6.30;;;;;;;;;;5100784;28;20073;-75
2021/06/06 13:37:13;;;;;;;6.00;5.15;;;;;;;;;;5093495;28;20152;-73
2021/06/06 13:39:39;;;;;;;7.30;6.45;;;;;;;;;;5100845;28;20381;-73
2021/06/06 13:42:06;;;;;;;6.45;5.78;;;;;;;;;;5101519;28;20100;-72
2021/06/06 13:44:32;;;;;;;8.50;6.65;;;;;;;;;;5102253;28;20036;-74
2021/06/06 13:46:58;;;;;;;6.47;5.88;;;;;;;;;;5100940;28;20066;-75
2021/06/06 13:49:25;;;;;;;7.25;6.60;;;;;;;;;;5101136;28;20117;-72
2021/06/06 13:51:51;;;;;;;7.45;5.63;;;;;;;;;;5102187;28;20032;-72
2021/06/06 13:54:17;;;;;;;6.20;5.80;;;;;;;;;;5100258;28;20500;-72
2021/06/06 13:56:43;;;;;;;6.82;5.72;;;;;;;;;;5103819;28;20441;-71
2021/06/06 13:59:09;;;;;;;11.02;5.85;;;;;;;;;;5108446;28;20013;-72
2021/06/06 14:01:36;;;;;;;6.20;5.65;;;;;;;;;;5107819;28;20024;-71
2021/06/06 14:04:02;;;;;;;6.18;5.65;;;;;;;;;;5108997;28;20031;-73
2021/06/06 14:06:28;;;;;;;7.30;5.82;;;;;;;;;;5118843;28;20062;-72
2021/06/06 14:08:54;;;;;;;13.85;5.45;;;;;;;;;;5119935;28;20366;-72
2021/06/06 14:11:21;;;;;;;6.63;6.03;;;;;;;;;;5120479;28;20027;-71
2021/06/06 14:13:47;;;;;;;6.70;6.03;;;;;;;;;;5120788;28;20118;-72
2021/06/06 14:16:17;;;;;;;8.40;5.68;;;;;;;;;;5121213;28;20050;-72
2021/06/06 14:18:44;;;;;;;12.98;5.75;;;;;;;;;;5119092;28;20115;-72
2021/06/06 14:21:11;;;;;;;6.38;5.88;;;;;;;;;;5120288;28;20034;-72
2021/06/06 14:23:37;;;;;;;7.38;6.72;;;;;;;;;;5120979;28;20019;-73
2021/06/06 14:26:03;;;;;;;6.65;6.05;;;;;;;;;;5120970;28;20087;-75
2021/06/06 14:28:30;;;;;;;8.07;5.85;;;;;;;;;;5120564;28;20410;-74
2021/06/06 14:30:56;;;;;;;6.47;5.88;;;;;;;;;;5120721;28;20024;-76
2021/06/06 14:33:23;;;;;;;5.68;5.18;;;;;;;;;;5119951;28;20031;-73
2021/06/06 14:35:50;;;;;;;6.55;5.53;;;;;;;;;;5121266;28;20552;-72
2021/06/06 14:38:16;;;;;;;5.95;5.40;;;;;;;;;;5120474;28;20479;-75